Time;durP1;ratioP1;P1;durP2;ratioP2;P2;SDS_P1;SDS_P2;PMS_P1;PMS_P2;Temp;Humidity;BMP_temperature;BMP_pressure;BME280_temperature;BME280_humidity;BME280_pressure;Samples;Min_cycle;Max_cycle;Signal;HPM_P1;HPM_P2
2022/10/04 00:02:26;;;;;;;0.15;0.10;;;;;;;5.61;100.00;97328.31;5088163;28;20043;-74
2022/10/04 00:05:17;;;;;;;0.10;0.10;;;;;;;5.63;100.00;97334.25;5092054;28;20058;-74
2022/10/04 00:08:27;;;;;;;0.20;0.10;;;;;;;5.58;100.00;97334.00;5091715;28;20038;-75
2022/10/04 00:11:36;;;;;;;0.10;0.10;;;;;;;5.49;100.00;97335.19;5087981;28;20058;-75
2022/10/04 00:14:31;;;;;;;0.10;0.10;;;;;;;5.38;100.00;97335.72;5086023;28;20827;-75
2022/10/04 00:17:25;;;;;;;0.10;0.10;;;;;;;5.27;100.00;97342.38;5090555;28;20541;-75
2022/10/04 00:20:46;;;;;;;0.10;0.10;;;;;;;5.14;100.00;97342.31;5089162;28;20043;-75
2022/10/04 00:23:35;;;;;;;0.20;0.17;;;;;;;5.24;100.00;97332.16;5076210;28;20474;-75
2022/10/04 00:26:24;;;;;;;0.10;0.10;;;;;;;5.21;100.00;97316.59;5088491;28;20043;-74
2022/10/04 00:29:25;;;;;;;0.10;0.10;;;;;;;5.31;100.00;97322.41;5075814;28;20043;-74
2022/10/04 00:32:11;;;;;;;0.10;0.10;;;;;;;5.22;100.00;97328.88;5089649;28;20097;-74
2022/10/04 00:34:58;;;;;;;0.10;0.10;;;;;;;5.12;100.00;97326.56;5091091;28;20361;-74
2022/10/04 00:38:06;;;;;;;0.10;0.10;;;;;;;5.17;100.00;97326.81;5070953;28;20196;-75
2022/10/04 00:41:06;;;;;;;0.10;0.10;;;;;;;5.18;100.00;97331.09;5073803;28;20035;-75
2022/10/04 00:43:55;;;;;;;0.10;0.10;;;;;;;5.04;100.00;97324.03;5077314;28;20046;-74
2022/10/04 00:46:44;;;;;;;0.10;0.10;;;;;;;5.14;100.00;97316.59;5077492;28;20031;-75
2022/10/04 00:49:39;;;;;;;0.10;0.10;;;;;;;5.19;100.00;97319.47;5091372;28;20327;-74
2022/10/04 00:52:29;;;;;;;0.10;0.10;;;;;;;5.00;100.00;97314.84;5087571;28;20104;-74
2022/10/04 00:55:26;;;;;;;0.10;0.10;;;;;;;5.04;100.00;97314.25;5070081;28;20494;-75
2022/10/04 00:58:25;;;;;;;0.10;0.10;;;;;;;5.10;100.00;97317.97;5087999;28;20394;-75
2022/10/04 01:01:11;;;;;;;0.10;0.10;;;;;;;5.17;100.00;97320.69;5086656;28;20108;-74
2022/10/04 01:04:00;;;;;;;0.10;0.10;;;;;;;5.17;100.00;97307.41;5090609;28;20587;-76
2022/10/04 01:06:46;;;;;;;0.10;0.10;;;;;;;5.13;100.00;97304.31;5090320;28;20535;-75
2022/10/04 01:09:36;;;;;;;0.10;0.10;;;;;;;5.19;100.00;97294.75;5089616;28;20082;-74
2022/10/04 01:12:47;;;;;;;0.10;0.10;;;;;;;5.16;100.00;97289.84;5074036;28;20555;-74
2022/10/04 01:15:55;;;;;;;0.10;0.10;;;;;;;5.22;100.00;97291.75;5089182;28;20039;-75
2022/10/04 01:18:42;;;;;;;0.20;0.15;;;;;;;5.24;100.00;97295.84;5089109;28;20031;-75
2022/10/04 01:21:30;;;;;;;0.10;0.10;;;;;;;5.21;100.00;97292.72;5088613;28;20120;-75
2022/10/04 01:24:20;;;;;;;0.10;0.10;;;;;;;5.11;100.00;97295.72;5086421;28;20313;-76
2022/10/04 01:27:30;;;;;;;0.10;0.10;;;;;;;5.11;100.00;97295.72;5088050;28;20031;-76
2022/10/04 01:30:16;;;;;;;0.10;0.10;;;;;;;4.98;100.00;97288.50;5081610;28;20039;-75
2022/10/04 01:33:05;;;;;;;0.22;0.10;;;;;;;4.99;100.00;97281.38;5087139;28;20462;-75
2022/10/04 01:35:51;;;;;;;0.10;0.10;;;;;;;5.09;100.00;97276.53;5089673;28;20032;-75
2022/10/04 01:38:37;;;;;;;0.08;0.08;;;;;;;5.21;100.00;97267.03;5090269;28;20040;-75
2022/10/04 01:41:30;;;;;;;0.10;0.10;;;;;;;5.37;100.00;97259.75;5069793;28;20510;-75
2022/10/04 01:44:25;;;;;;;0.15;0.10;;;;;;;5.51;100.00;97261.47;5086186;28;20301;-75
2022/10/04 01:47:17;;;;;;;0.10;0.10;;;;;;;5.71;100.00;97245.63;5085445;28;20040;-76
2022/10/04 01:50:13;;;;;;;0.10;0.10;;;;;;;5.77;100.00;97248.31;5088495;28;20040;-76
2022/10/04 01:53:28;;;;;;;0.10;0.10;;;;;;;5.90;100.00;97247.53;5087361;28;20108;-76
2022/10/04 01:56:22;;;;;;;0.10;0.10;;;;;;;5.99;100.00;97243.72;5085566;28;20244;-76
2022/10/04 01:59:15;;;;;;;0.10;0.10;;;;;;;6.01;100.00;97248.84;5086271;28;20036;-75
2022/10/04 02:02:18;;;;;;;0.10;0.10;;;;;;;5.94;100.00;97245.34;5086686;28;20047;-75
2022/10/04 02:05:07;;;;;;;0.10;0.10;;;;;;;5.90;100.00;97250.19;5071815;28;20051;-75
2022/10/04 02:07:55;;;;;;;0.10;0.10;;;;;;;5.87;100.00;97250.59;5088622;28;20394;-75
2022/10/04 02:10:41;;;;;;;0.10;0.10;;;;;;;5.84;100.00;97248.34;5066957;28;20043;-75
2022/10/04 02:13:34;;;;;;;0.10;0.10;;;;;;;5.79;100.00;97240.97;5088521;28;20046;-74
2022/10/04 02:16:21;;;;;;;0.10;0.10;;;;;;;5.78;100.00;97242.00;5086197;28;20201;-74
2022/10/04 02:19:09;;;;;;;0.10;0.10;;;;;;;5.78;100.00;97247.28;5089149;28;20031;-76
2022/10/04 02:21:56;;;;;;;0.10;0.10;;;;;;;5.78;100.00;97247.28;5086037;28;20039;-74
2022/10/04 02:24:45;;;;;;;0.10;0.10;;;;;;;5.65;100.00;97233.97;5089654;28;20531;-75
2022/10/04 02:27:32;;;;;;;0.10;0.10;;;;;;;5.68;100.00;97227.44;5073522;28;20039;-75
2022/10/04 02:30:17;;;;;;;0.10;0.10;;;;;;;5.68;100.00;97230.94;5084968;28;20035;-75
2022/10/04 02:33:04;;;;;;;0.10;0.10;;;;;;;5.75;100.00;97225.63;5074803;28;20385;-75
2022/10/04 02:35:52;;;;;;;0.10;0.10;;;;;;;5.83;100.00;97236.06;5089249;28;20073;-75
2022/10/04 02:39:16;;;;;;;0.10;0.10;;;;;;;5.94;100.00;97224.91;5073234;28;20327;-74
2022/10/04 02:42:11;;;;;;;0.10;0.10;;;;;;;5.98;100.00;97225.31;5053876;28;20377;-75
2022/10/04 02:45:22;;;;;;;0.10;0.10;;;;;;;6.02;100.00;97231.88;5080441;28;20043;-75
2022/10/04 02:48:35;;;;;;;0.10;0.10;;;;;;;6.08;100.00;97223.09;5086171;28;20308;-75
2022/10/04 02:51:32;;;;;;;0.10;0.10;;;;;;;6.12;100.00;97221.66;5061998;28;20048;-75
2022/10/04 02:54:26;;;;;;;0.10;0.10;;;;;;;6.07;100.00;97219.63;5086841;28;20047;-75
2022/10/04 02:57:18;;;;;;;0.20;0.20;;;;;;;6.00;100.00;97212.66;5085436;28;20343;-75
2022/10/04 03:00:21;;;;;;;0.17;0.10;;;;;;;6.01;100.00;97223.09;5085633;28;20504;-75
2022/10/04 03:03:15;;;;;;;0.10;0.10;;;;;;;5.97;100.00;97215.69;5073385;28;20470;-75
2022/10/04 03:06:07;;;;;;;0.15;0.15;;;;;;;5.85;100.00;97204.81;5087484;28;20324;-75
2022/10/04 03:08:58;;;;;;;0.15;0.10;;;;;;;5.82;100.00;97221.97;5088503;28;20068;-75
2022/10/04 03:11:45;;;;;;;0.10;0.10;;;;;;;5.77;100.00;97213.78;5073019;28;20034;-75
2022/10/04 03:14:32;;;;;;;0.10;0.10;;;;;;;5.72;100.00;97216.22;5084482;28;20044;-75
2022/10/04 03:17:20;;;;;;;0.10;0.10;;;;;;;5.70;100.00;97207.63;5087292;28;20475;-75
2022/10/04 03:20:09;;;;;;;0.10;0.10;;;;;;;5.70;100.00;97218.25;5057504;28;20036;-75
2022/10/04 03:22:56;;;;;;;0.10;0.10;;;;;;;5.67;100.00;97210.69;5087801;28;20042;-75
2022/10/04 03:25:52;;;;;;;0.10;0.10;;;;;;;5.62;100.00;97221.09;5085729;28;20035;-75
2022/10/04 03:28:38;;;;;;;0.15;0.15;;;;;;;5.56;100.00;97208.59;5091742;28;20128;-75
2022/10/04 03:31:26;;;;;;;0.20;0.10;;;;;;;5.47;100.00;97201.84;5076263;28;20264;-75
2022/10/04 03:34:18;;;;;;;0.10;0.10;;;;;;;5.45;100.00;97204.69;5073146;28;20363;-75
2022/10/04 03:37:14;;;;;;;0.10;0.10;;;;;;;5.48;100.00;97203.47;5075652;28;20468;-75
2022/10/04 03:40:00;;;;;;;0.10;0.10;;;;;;;5.43;100.00;97196.09;5092201;28;20035;-74
2022/10/04 03:42:48;;;;;;;0.10;0.10;;;;;;;5.44;100.00;97203.03;5092846;28;20043;-75
2022/10/04 03:45:34;;;;;;;0.13;0.13;;;;;;;5.46;100.00;97200.19;5091495;28;20075;-75
2022/10/04 03:48:29;;;;;;;0.10;0.10;;;;;;;5.47;100.00;97201.84;5090564;28;20181;-74
2022/10/04 03:51:21;;;;;;;0.10;0.10;;;;;;;5.49;100.00;97200.59;5087748;28;20469;-75
2022/10/04 03:54:12;;;;;;;0.17;0.10;;;;;;;5.51;100.00;97187.13;5092587;28;20201;-75
2022/10/04 03:57:00;;;;;;;0.10;0.10;;;;;;;5.56;100.00;97190.84;5091027;28;20031;-75
2022/10/04 03:59:46;;;;;;;0.10;0.10;;;;;;;5.69;100.00;97195.38;5090437;28;20035;-75
2022/10/04 04:02:55;;;;;;;0.10;0.10;;;;;;;5.81;100.00;97183.13;5090517;28;20039;-75
2022/10/04 04:05:49;;;;;;;0.10;0.10;;;;;;;5.96;100.00;97190.16;5093487;28;20076;-75
2022/10/04 04:08:39;;;;;;;0.35;0.20;;;;;;;6.03;100.00;97201.63;5078362;28;20375;-75
2022/10/04 04:11:26;;;;;;;0.28;0.17;;;;;;;6.08;100.00;97197.34;5090046;28;20147;-75
2022/10/04 04:14:19;;;;;;;0.10;0.10;;;;;;;6.12;100.00;97187.13;5093034;28;20627;-76
2022/10/04 04:17:26;;;;;;;0.10;0.10;;;;;;;6.18;100.00;97185.50;5090845;28;20051;-76
2022/10/04 04:20:20;;;;;;;0.15;0.15;;;;;;;6.29;100.00;97188.34;5087620;28;20192;-76
2022/10/04 04:23:09;;;;;;;0.10;0.10;;;;;;;6.31;100.00;97181.03;5090911;28;20027;-76
2022/10/04 04:26:09;;;;;;;0.10;0.10;;;;;;;6.30;100.00;97168.75;5091132;28;20038;-75
2022/10/04 04:29:23;;;;;;;0.10;0.10;;;;;;;6.37;100.00;97171.38;5090071;28;20054;-75
2022/10/04 04:32:30;;;;;;;0.10;0.10;;;;;;;6.45;100.00;97165.06;5088838;28;20386;-75
2022/10/04 04:35:28;;;;;;;0.10;0.10;;;;;;;6.51;100.00;97158.91;5090461;28;20035;-76
2022/10/04 04:38:24;;;;;;;0.20;0.20;;;;;;;6.57;100.00;97160.75;5090559;28;20044;-75
2022/10/04 04:41:10;;;;;;;0.20;0.20;;;;;;;6.68;100.00;97170.75;5088940;28;20040;-74
2022/10/04 04:43:57;;;;;;;0.10;0.10;;;;;;;6.72;100.00;97161.38;5094023;28;20092;-75
2022/10/04 04:46:46;;;;;;;0.10;0.10;;;;;;;6.69;100.00;97172.41;5092556;28;20123;-74
2022/10/04 04:49:37;;;;;;;0.10;0.10;;;;;;;6.76;100.00;97175.88;5093088;28;20055;-75
2022/10/04 04:52:28;;;;;;;0.17;0.10;;;;;;;6.77;100.00;97185.50;5090145;28;20486;-75
2022/10/04 04:55:21;;;;;;;0.10;0.10;;;;;;;6.80;100.00;97195.72;5088427;28;20085;-74
2022/10/04 04:58:17;;;;;;;0.10;0.10;;;;;;;6.84;100.00;97196.94;5075933;28;20070;-75
2022/10/04 05:01:12;;;;;;;0.10;0.10;;;;;;;6.69;100.00;97191.84;5089511;28;20040;-75
2022/10/04 05:04:11;;;;;;;0.10;0.10;;;;;;;6.65;100.00;97193.28;5093900;28;20522;-74
2022/10/04 05:07:04;;;;;;;0.03;0.03;;;;;;;6.68;100.00;97202.69;5090578;27;20123;-74
2022/10/04 05:09:50;;;;;;;0.10;0.10;;;;;;;6.63;100.00;97202.50;5093831;28;20039;-75
2022/10/04 05:12:35;;;;;;;0.10;0.10;;;;;;;6.62;100.00;97187.56;5090817;28;20509;-76
2022/10/04 05:15:21;;;;;;;0.20;0.15;;;;;;;6.77;100.00;97172.22;5089204;28;20097;-75
2022/10/04 05:18:33;;;;;;;0.10;0.10;;;;;;;6.95;100.00;97175.03;5090037;28;20323;-75
2022/10/04 05:21:26;;;;;;;0.10;0.10;;;;;;;7.02;100.00;97182.19;5088680;28;20775;-76
2022/10/04 05:24:33;;;;;;;0.10;0.10;;;;;;;7.12;100.00;97179.91;5089144;28;20044;-76
2022/10/04 05:27:34;;;;;;;0.20;0.20;;;;;;;7.19;100.00;97181.53;5087027;28;20393;-76
2022/10/04 05:30:42;;;;;;;0.17;0.13;;;;;;;7.20;100.00;97177.00;5089013;28;20471;-74
2022/10/04 05:33:45;;;;;;;0.20;0.10;;;;;;;7.21;100.00;97182.13;5073717;28;20043;-74
2022/10/04 05:36:56;;;;;;;0.20;0.20;;;;;;;7.19;100.00;97183.38;5088924;28;20062;-74
2022/10/04 05:40:17;;;;;;;0.10;0.10;;;;;;;7.18;100.00;97195.03;5091908;28;20533;-74
2022/10/04 05:43:21;;;;;;;0.20;0.20;;;;;;;7.23;100.00;97192.56;5091949;28;20532;-75
2022/10/04 05:46:14;;;;;;;0.10;0.10;;;;;;;7.24;100.00;97200.34;5086439;28;20311;-74
2022/10/04 05:49:14;;;;;;;0.10;0.10;;;;;;;7.20;100.00;97180.50;5091668;28;20032;-74
2022/10/04 05:52:02;;;;;;;0.20;0.20;;;;;;;7.18;100.00;97187.06;5088223;28;20140;-77
2022/10/04 05:55:11;;;;;;;0.10;0.10;;;;;;;7.15;100.00;97187.47;5091370;28;20504;-76
2022/10/04 05:58:35;;;;;;;0.10;0.10;;;;;;;7.06;100.00;97184.22;5092302;28;20031;-75
2022/10/04 06:02:03;;;;;;;0.10;0.10;;;;;;;6.91;100.00;97188.94;5087713;28;20455;-75
2022/10/04 06:05:07;;;;;;;0.10;0.10;;;;;;;6.84;100.00;97183.63;5088851;28;20501;-75
2022/10/04 06:08:00;;;;;;;0.20;0.10;;;;;;;6.79;100.00;97178.13;5089002;28;20055;-75
2022/10/04 06:10:48;;;;;;;0.10;0.10;;;;;;;6.83;100.00;97174.03;5084859;28;20046;-75
2022/10/04 06:13:50;;;;;;;0.10;0.10;;;;;;;6.77;100.00;97169.56;5083371;28;20040;-76
2022/10/04 06:16:48;;;;;;;0.10;0.10;;;;;;;6.70;100.00;97168.75;5091041;28;20432;-76
2022/10/04 06:19:33;;;;;;;0.20;0.20;;;;;;;6.70;100.00;97177.53;5091423;28;20213;-76
2022/10/04 06:22:21;;;;;;;0.10;0.10;;;;;;;6.73;100.00;97176.28;5088723;28;20036;-76
2022/10/04 06:25:15;;;;;;;0.10;0.10;;;;;;;6.68;100.00;97173.41;5090082;28;20035;-76
2022/10/04 06:28:27;;;;;;;0.10;0.10;;;;;;;6.66;100.00;97175.47;5087600;28;20499;-76
2022/10/04 06:31:29;;;;;;;0.10;0.10;;;;;;;6.63;100.00;97182.03;5089319;28;20186;-76
2022/10/04 06:34:17;;;;;;;;;;;;;;;6.70;100.00;97180.19;5093297;28;20080;-76
2022/10/04 06:37:25;;;;;;;0.10;0.10;;;;;;;6.73;100.00;97176.28;5074880;28;19915;-76
2022/10/04 06:40:25;;;;;;;0.10;0.10;;;;;;;6.79;100.00;97169.34;5089429;28;20104;-76
2022/10/04 06:43:39;;;;;;;0.20;0.20;;;;;;;6.82;100.00;97164.41;5089521;28;20043;-76
2022/10/04 06:46:42;;;;;;;0.10;0.10;;;;;;;6.92;100.00;97164.78;5089646;28;20088;-76
2022/10/04 06:50:11;;;;;;;0.10;0.10;;;;;;;7.06;100.00;97154.94;5090815;28;20237;-76
2022/10/04 06:53:21;;;;;;;0.10;0.10;;;;;;;7.23;100.00;97152.63;5092752;28;20050;-76
2022/10/04 06:56:31;;;;;;;0.10;0.10;;;;;;;7.34;100.00;97157.31;5087985;28;20789;-77
2022/10/04 06:59:45;;;;;;;0.10;0.10;;;;;;;7.43;100.00;97156.03;5087089;28;20785;-76
2022/10/04 07:02:39;;;;;;;0.30;0.10;;;;;;;7.51;100.00;97163.78;5088112;28;20044;-76
2022/10/04 07:05:35;;;;;;;0.13;0.13;;;;;;;7.62;100.00;97164.97;5086877;28;20092;-76
2022/10/04 07:08:30;;;;;;;0.10;0.10;;;;;;;7.67;100.00;97172.31;5089485;28;20366;-76
2022/10/04 07:11:22;;;;;;;0.10;0.10;;;;;;;7.74;100.00;97162.47;5086965;28;20046;-76
2022/10/04 07:14:17;;;;;;;0.10;0.10;;;;;;;7.76;100.00;97160.38;5088517;28;20035;-76
2022/10/04 07:17:11;;;;;;;0.10;0.10;;;;;;;7.87;100.00;97167.72;5063360;28;20039;-76
2022/10/04 07:19:59;;;;;;;0.20;0.20;;;;;;;7.83;100.00;97169.97;5089992;28;20090;-75
2022/10/04 07:22:55;;;;;;;0.10;0.10;;;;;;;7.95;100.00;97167.47;5090565;28;20758;-76
2022/10/04 07:25:47;;;;;;;0.10;0.10;;;;;;;8.06;100.00;97174.75;5090357;28;20116;-76
2022/10/04 07:32:20;;;;;;;0.22;0.13;;;;;;;8.26;100.00;97173.81;5089518;28;20118;-76
2022/10/04 07:35:29;;;;;;;0.10;0.10;;;;;;;8.35;100.00;97161.88;5073886;28;20031;-76
2022/10/04 07:38:25;;;;;;;0.10;0.10;;;;;;;8.27;100.00;97164.78;5089546;28;20059;-76
2022/10/04 07:41:23;;;;;;;0.25;0.20;;;;;;;8.34;100.00;97157.56;5072201;28;20109;-77
2022/10/04 07:44:39;;;;;;;0.10;0.10;;;;;;;8.51;100.00;97172.00;5088502;28;20434;-77
2022/10/04 07:47:26;;;;;;;0.20;0.20;;;;;;;8.69;100.00;97170.41;5088308;28;20050;-77
2022/10/04 07:50:25;;;;;;;0.10;0.10;;;;;;;8.72;100.00;97172.66;5087494;28;20044;-77
2022/10/04 07:53:25;;;;;;;0.10;0.10;;;;;;;8.76;100.00;97165.84;5089401;28;20376;-77
2022/10/04 07:56:37;;;;;;;0.10;0.10;;;;;;;8.91;100.00;97164.47;5087015;28;20268;-77
2022/10/04 07:59:45;;;;;;;0.10;0.10;;;;;;;8.91;100.00;97153.78;5088879;28;20043;-77
2022/10/04 08:02:37;;;;;;;0.10;0.10;;;;;;;8.79;100.00;97150.19;5051157;28;20043;-77
2022/10/04 08:05:42;;;;;;;0.10;0.10;;;;;;;8.94;100.00;97145.31;5083081;28;20480;-77
2022/10/04 08:09:05;;;;;;;0.10;0.10;;;;;;;9.08;100.00;97150.53;5085493;28;20242;-77
2022/10/04 08:12:00;;;;;;;0.13;0.13;;;;;;;9.22;100.00;97138.66;5075323;28;20040;-77
2022/10/04 08:15:07;;;;;;;0.10;0.10;;;;;;;9.30;100.00;97143.72;5080416;27;20119;-77
2022/10/04 08:18:16;;;;;;;0.10;0.10;;;;;;;9.26;100.00;97139.88;5087170;27;20044;-77
2022/10/04 08:21:06;;;;;;;0.10;0.10;;;;;;;9.28;100.00;97153.81;5089857;27;20437;-77
2022/10/04 08:24:12;;;;;;;0.10;0.10;;;;;;;9.46;100.00;97152.97;5092290;27;20043;-77
2022/10/04 08:27:36;;;;;;;0.10;0.10;;;;;;;9.46;100.00;97161.00;5080241;27;20092;-77
2022/10/04 08:30:24;;;;;;;0.10;0.10;;;;;;;9.63;100.00;97153.16;5066944;28;20107;-77
2022/10/04 08:33:25;;;;;;;0.10;0.10;;;;;;;9.94;100.00;97169.00;5081189;27;20115;-77
2022/10/04 08:36:23;;;;;;;0.10;0.10;;;;;;;10.02;100.00;97157.16;5081841;28;20500;-77
2022/10/04 08:39:25;;;;;;;0.10;0.10;;;;;;;9.92;100.00;97164.91;5086172;27;20202;-77
2022/10/04 08:42:26;;;;;;;0.15;0.13;;;;;;;10.04;100.00;97160.44;5084874;27;20274;-77
2022/10/04 08:45:31;;;;;;;0.20;0.20;;;;;;;10.17;100.00;97165.56;5085631;27;20116;-77
2022/10/04 08:48:50;;;;;;;0.10;0.10;;;;;;;10.19;100.00;97158.13;5083596;27;20567;-77
2022/10/04 08:52:07;;;;;;;0.10;0.10;;;;;;;10.46;100.00;97163.13;5085803;27;20060;-77
2022/10/04 08:55:39;;;;;;;0.10;0.10;;;;;;;10.76;100.00;97169.19;5087747;27;20408;-77
2022/10/04 08:58:46;;;;;;;0.10;0.10;;;;;;;10.84;100.00;97170.72;5062946;27;20069;-77
2022/10/04 09:02:07;;;;;;;0.10;0.10;;;;;;;11.06;100.00;97161.06;5083090;27;20066;-77
2022/10/04 09:05:25;;;;;;;0.10;0.10;;;;;;;11.10;100.00;97159.53;5070883;27;20847;-78
2022/10/04 09:08:49;;;;;;;0.10;0.10;;;;;;;11.19;100.00;97172.56;5058085;28;20448;-77
2022/10/04 09:11:49;;;;;;;0.20;0.20;;;;;;;11.35;100.00;97155.75;5084329;27;20245;-78
2022/10/04 09:15:01;;;;;;;0.10;0.10;;;;;;;11.12;100.00;97160.09;5072278;28;20050;-77
2022/10/04 09:18:20;;;;;;;0.10;0.10;;;;;;;10.95;100.00;97161.03;5084365;27;20133;-77
2022/10/04 09:21:13;;;;;;;0.10;0.10;;;;;;;11.05;100.00;97161.25;5066507;27;20040;-77
2022/10/04 09:24:08;;;;;;;0.10;0.10;;;;;;;11.16;100.00;97158.59;5083170;28;20044;-78
2022/10/04 09:27:21;;;;;;;0.10;0.10;;;;;;;11.12;100.00;97159.28;5082583;28;20040;-77
2022/10/04 09:30:17;;;;;;;0.10;0.10;;;;;;;11.22;100.00;97159.53;5082073;28;20668;-77
2022/10/04 09:33:24;;;;;;;0.10;0.10;;;;;;;11.29;100.00;97160.22;5081709;27;20054;-77
2022/10/04 09:36:42;;;;;;;0.10;0.10;;;;;;;11.33;100.00;97156.00;5049464;27;20036;-77
2022/10/04 09:39:53;;;;;;;0.10;0.10;;;;;;;11.50;100.00;97141.84;5086096;27;20054;-77
2022/10/04 09:43:24;;;;;;;0.20;0.20;;;;;;;11.76;100.00;97145.88;5077185;28;20104;-78
2022/10/04 09:46:30;;;;;;;0.10;0.10;;;;;;;11.86;100.00;97138.03;5080343;28;20115;-77
2022/10/04 09:49:41;;;;;;;0.10;0.10;;;;;;;11.69;100.00;97144.13;5072583;28;20062;-77
2022/10/04 09:52:57;;;;;;;0.20;0.20;;;;;;;12.40;100.00;97147.31;5090258;28;20122;-77
2022/10/04 09:55:52;;;;;;;0.20;0.20;;;;;;;12.61;100.00;97140.41;5092995;28;20040;-77
2022/10/04 09:59:01;;;;;;;0.20;0.20;;;;;;;13.13;100.00;97137.41;5093813;28;20402;-77
2022/10/04 10:01:59;;;;;;;0.10;0.10;;;;;;;13.37;100.00;97140.69;5059929;28;20047;-78
2022/10/04 10:05:25;;;;;;;0.20;0.20;;;;;;;14.65;100.00;97138.28;5064853;28;20481;-77
2022/10/04 10:08:35;;;;;;;0.10;0.10;;;;;;;16.43;100.00;97127.47;5091188;28;20039;-78
2022/10/04 10:15:54;;;;;;;0.57;0.20;;;;;;;18.71;94.84;97127.72;5071232;28;20252;-78
2022/10/04 10:19:04;;;;;;;0.20;0.20;;;;;;;20.47;79.83;97124.31;5027819;28;20234;-78
2022/10/04 10:22:32;;;;;;;0.20;0.20;;;;;;;21.39;71.75;97118.88;5053943;28;20130;-78
2022/10/04 10:25:46;;;;;;;0.20;0.20;;;;;;;22.02;60.34;97127.41;5075635;28;20039;-78
2022/10/04 10:29:01;;;;;;;0.20;0.20;;;;;;;21.85;62.42;97128.06;5086905;28;20432;-78
2022/10/04 10:32:08;;;;;;;0.28;0.20;;;;;;;22.38;60.73;97125.53;5074494;28;20387;-78
2022/10/04 10:35:15;;;;;;;0.20;0.20;;;;;;;22.36;53.38;97130.50;4743444;28;10000872;-78
2022/10/04 10:38:06;;;;;;;0.20;0.20;;;;;;;23.83;49.27;97119.63;5088493;28;20043;-78
2022/10/04 10:41:34;;;;;;;0.20;0.20;;;;;;;23.11;50.66;97128.13;5078333;28;20048;-78
2022/10/04 10:44:37;;;;;;;0.20;0.20;;;;;;;22.51;53.98;97119.22;5093289;28;20487;-78
2022/10/04 10:47:29;;;;;;;0.20;0.20;;;;;;;23.83;48.36;97119.63;5093381;28;20040;-79
2022/10/04 10:50:59;;;;;;;0.20;0.20;;;;;;;22.48;52.50;97125.28;5076051;28;20043;-79
2022/10/04 10:54:19;;;;;;;0.15;0.15;;;;;;;23.82;47.41;97132.50;5094240;28;20445;-79
2022/10/04 10:57:44;;;;;;;0.20;0.20;;;;;;;24.44;44.80;97117.81;5076577;28;20510;-78
2022/10/04 11:00:49;;;;;;;0.10;0.10;;;;;;;23.88;46.70;97105.81;5090104;28;20311;-78
2022/10/04 11:04:01;;;;;;;0.20;0.20;;;;;;;24.87;43.25;97115.00;5076934;28;20079;-78
2022/10/04 11:07:15;;;;;;;0.10;0.10;;;;;;;24.51;44.00;97095.41;5090941;28;20040;-78
2022/10/04 11:10:28;;;;;;;0.20;0.20;;;;;;;25.19;43.14;97099.97;5090702;28;20398;-78
2022/10/04 11:13:37;;;;;;;0.10;0.10;;;;;;;25.59;42.45;97099.66;5077838;28;20147;-78
2022/10/04 11:16:26;;;;;;;0.15;0.15;;;;;;;26.21;40.31;97093.50;5085574;28;20120;-78
2022/10/04 11:19:41;;;;;;;0.10;0.10;;;;;;;25.97;40.64;97087.84;5091997;28;20039;-78
2022/10/04 11:22:48;;;;;;;0.10;0.10;;;;;;;28.29;37.21;97088.38;5088290;28;20203;-78
2022/10/04 11:25:46;;;;;;;0.10;0.10;;;;;;;28.68;34.43;97086.78;5092230;28;20032;-78
2022/10/04 11:28:45;;;;;;;0.10;0.10;;;;;;;28.30;33.08;97085.31;5093708;28;20119;-77
2022/10/04 11:31:50;;;;;;;0.10;0.10;;;;;;;29.14;33.49;97099.09;5090069;28;20502;-78
2022/10/04 11:34:58;;;;;;;0.15;0.10;;;;;;;31.02;30.71;97093.50;5093707;28;20043;-78
2022/10/04 11:38:05;;;;;;;0.10;0.10;;;;;;;29.73;30.84;97086.41;5089704;28;20070;-78
2022/10/04 11:41:09;;;;;;;0.10;0.10;;;;;;;30.86;29.30;97073.47;5091969;28;20039;-78
2022/10/04 11:44:20;;;;;;;0.20;0.20;;;;;;;28.78;31.34;97072.50;5092919;28;20032;-78
2022/10/04 11:47:42;;;;;;;0.10;0.10;;;;;;;28.34;31.98;97065.38;5075227;28;20510;-79
2022/10/04 11:50:27;;;;;;;0.10;0.10;;;;;;;26.30;35.87;97068.72;5092748;28;20341;-78
2022/10/04 11:53:24;;;;;;;0.10;0.10;;;;;;;26.51;36.03;97068.75;5094099;28;20047;-78
2022/10/04 11:56:55;;;;;;;0.10;0.10;;;;;;;27.21;35.31;97064.16;5091535;28;20146;-78
2022/10/04 12:00:14;;;;;;;0.10;0.10;;;;;;;28.95;32.89;97054.91;5081562;28;20043;-78
2022/10/04 12:03:34;;;;;;;0.10;0.10;;;;;;;28.44;33.32;97060.16;5093525;28;20470;-78
2022/10/04 12:06:57;;;;;;;0.10;0.10;;;;;;;29.17;31.25;97066.47;5094181;28;20533;-78
2022/10/04 12:10:06;;;;;;;0.10;0.10;;;;;;;30.31;29.61;97069.97;5096416;28;20378;-78
2022/10/04 12:13:02;;;;;;;0.10;0.10;;;;;;;31.08;29.42;97068.34;5095308;28;20046;-78
2022/10/04 12:15:56;;;;;;;0.10;0.10;;;;;;;29.95;30.43;97057.34;5081572;28;20801;-78
2022/10/04 12:18:50;;;;;;;0.10;0.10;;;;;;;28.33;32.13;97058.25;5095708;28;20051;-77
2022/10/04 12:21:49;;;;;;;0.10;0.10;;;;;;;30.48;29.46;97046.66;5095722;28;20407;-78
2022/10/04 12:24:56;;;;;;;0.10;0.10;;;;;;;29.00;31.74;97051.88;5083086;28;20314;-78
2022/10/04 12:27:54;;;;;;;0.17;0.17;;;;;;;27.79;33.69;97042.09;5096578;28;20047;-77
2022/10/04 12:31:08;;;;;;;0.10;0.10;;;;;;;27.75;33.82;97039.22;5094332;28;20527;-78
2022/10/04 12:34:13;;;;;;;0.10;0.10;;;;;;;28.48;34.21;97036.31;5096228;28;20072;-78
2022/10/04 12:37:31;;;;;;;0.10;0.10;;;;;;;29.73;30.61;97039.53;5094978;28;20044;-78
2022/10/04 12:40:32;;;;;;;0.10;0.10;;;;;;;29.51;32.00;97035.47;5047622;28;20247;-78
2022/10/04 12:43:59;;;;;;;0.00;0.00;;;;;;;29.77;31.60;97023.84;5094304;28;20235;-77
2022/10/04 12:46:48;;;;;;;0.10;0.10;;;;;;;29.02;32.18;97022.00;5095880;28;20122;-78
2022/10/04 12:49:44;;;;;;;0.10;0.10;;;;;;;30.66;29.80;97031.28;5095914;28;20048;-78
2022/10/04 12:52:48;;;;;;;0.10;0.10;;;;;;;28.73;31.43;97022.41;5094841;28;20067;-78
2022/10/04 12:55:39;;;;;;;0.10;0.10;;;;;;;29.40;31.26;97023.34;5080068;28;20082;-77
2022/10/04 12:58:42;;;;;;;0.10;0.10;;;;;;;29.01;32.27;97014.13;5092960;28;20335;-78
2022/10/04 13:01:49;;;;;;;0.10;0.10;;;;;;;29.49;30.98;97023.94;5092336;28;20337;-78
2022/10/04 13:04:58;;;;;;;0.10;0.10;;;;;;;30.74;30.35;97012.88;5095664;28;20050;-77
2022/10/04 13:07:52;;;;;;;0.10;0.10;;;;;;;30.55;30.02;97001.84;5096363;28;20383;-77
2022/10/04 13:10:51;;;;;;;0.10;0.10;;;;;;;30.13;30.23;97008.91;5095283;28;20039;-77
2022/10/04 13:14:01;;;;;;;0.15;0.15;;;;;;;30.31;29.63;97011.22;5095568;28;20396;-78
2022/10/04 13:17:26;;;;;;;0.10;0.10;;;;;;;29.98;30.64;97008.94;5097285;28;20059;-78
2022/10/04 13:20:39;;;;;;;0.10;0.10;;;;;;;30.55;30.29;97002.63;5066871;28;20044;-78
2022/10/04 13:23:53;;;;;;;0.10;0.10;;;;;;;29.79;31.80;97012.44;5093788;28;20044;-78
2022/10/04 13:26:51;;;;;;;0.10;0.10;;;;;;;30.33;30.07;97023.50;5095076;28;20039;-78
2022/10/04 13:30:22;;;;;;;0.10;0.10;;;;;;;30.31;30.24;97023.06;5094706;28;20101;-77
2022/10/04 13:33:29;;;;;;;0.10;0.10;;;;;;;29.47;31.53;97014.44;5065800;27;20484;-78
2022/10/04 13:36:28;;;;;;;0.10;0.10;;;;;;;28.81;31.85;97013.19;5094439;28;20082;-78
2022/10/04 13:39:42;;;;;;;0.30;0.30;;;;;;;28.42;33.08;97009.38;5095380;28;20522;-78
2022/10/04 13:42:47;;;;;;;0.10;0.10;;;;;;;27.62;34.38;97002.66;5079840;28;20028;-79
2022/10/04 13:46:08;;;;;;;0.10;0.10;;;;;;;28.15;33.87;96989.72;5094977;28;20047;-78
2022/10/04 13:49:05;;;;;;;0.10;0.10;;;;;;;28.47;33.71;97004.41;5096959;28;20115;-78
2022/10/04 13:58:44;;;;;;;0.43;0.40;;;;;;;26.98;35.70;96995.09;5094598;27;20044;-78
2022/10/04 14:01:54;;;;;;;0.20;0.20;;;;;;;28.71;34.62;96983.41;5094526;28;20043;-78
2022/10/04 14:04:49;;;;;;;;;;;;;;;28.01;33.92;96992.06;5094452;28;20047;-78
2022/10/04 14:07:43;;;;;;;0.10;0.10;;;;;;;28.80;32.82;96981.31;5092769;28;19918;-78
2022/10/04 14:10:35;;;;;;;0.10;0.10;;;;;;;28.88;33.74;96971.28;5092292;28;20075;-79
2022/10/04 14:13:36;;;;;;;0.10;0.10;;;;;;;28.69;32.88;96958.19;5093089;28;20320;-78
2022/10/04 14:16:59;;;;;;;0.10;0.10;;;;;;;26.49;35.51;96970.31;5091559;28;20040;-78
2022/10/04 14:19:57;;;;;;;0.10;0.10;;;;;;;27.23;34.25;96967.66;5095187;28;20036;-78
2022/10/04 14:23:22;;;;;;;0.38;0.28;;;;;;;27.69;33.92;96964.44;5091611;28;20046;-78
2022/10/04 14:26:20;;;;;;;0.10;0.10;;;;;;;26.87;36.59;96969.25;5090384;28;20039;-78
2022/10/04 14:29:34;;;;;;;0.10;0.10;;;;;;;28.82;32.75;96954.22;5091491;28;20073;-78